createdAt,value
2023-03-12T00:00:04.013Z,1.34
2023-03-12T00:01:04.458Z,0.92
2023-03-12T00:02:04.495Z,0.91
2023-03-12T00:03:04.634Z,1.58
2023-03-12T00:04:03.955Z,1.58
2023-03-12T00:05:04.109Z,1
2023-03-12T00:06:12.383Z,1.1
2023-03-12T00:07:04.345Z,0.96
2023-03-12T00:08:04.656Z,0.96
2023-03-12T00:09:03.734Z,0.65
2023-03-12T00:10:04.282Z,0.73
2023-03-12T00:11:04.278Z,0.66
2023-03-12T00:12:04.618Z,0.8
2023-03-12T00:13:04.439Z,0.97
2023-03-12T00:14:04.553Z,0.76
2023-03-12T00:15:03.863Z,1.01
2023-03-12T00:16:04.156Z,0.75
2023-03-12T00:17:04.194Z,0.95
2023-03-12T00:18:04.644Z,0.97
2023-03-12T00:19:03.737Z,0.82
2023-03-12T00:20:04.185Z,0.84
2023-03-12T00:21:04.870Z,1.52
2023-03-12T00:22:04.126Z,0.69
2023-03-12T00:23:04.532Z,1.26
2023-03-12T00:24:04.028Z,0.62
2023-03-12T00:25:04.133Z,0.62
2023-03-12T00:26:04.015Z,1.07
2023-03-12T00:27:04.378Z,1.07
2023-03-12T00:28:03.851Z,1.01
2023-03-12T00:29:04.522Z,0.81
2023-03-12T00:30:04.679Z,0.57
2023-03-12T00:31:03.959Z,0.92
2023-03-12T00:32:03.762Z,1.72
2023-03-12T00:33:04.210Z,0.72
2023-03-12T00:34:04.623Z,0.61
2023-03-12T00:35:03.832Z,1.1
2023-03-12T00:36:04.309Z,1.1
2023-03-12T00:37:04.042Z,1.27
2023-03-12T00:38:04.428Z,1.62
2023-03-12T00:39:03.842Z,1.05
2023-03-12T00:40:04.084Z,1.08
2023-03-12T00:41:03.967Z,1.59
2023-03-12T00:42:04.131Z,1.05
2023-03-12T00:43:04.448Z,0.98
2023-03-12T00:44:03.680Z,1.21
2023-03-12T00:45:04.209Z,0.97
2023-03-12T00:46:04.239Z,1.26
2023-03-12T00:47:03.903Z,0.91
2023-03-12T00:48:04.228Z,1.68
2023-03-12T00:49:03.908Z,0.96
2023-03-12T00:50:04.306Z,1.02
2023-03-12T00:51:04.534Z,1.98
2023-03-12T00:52:04.239Z,1.56
2023-03-12T00:53:03.863Z,3.53
2023-03-12T00:54:04.758Z,2.54
2023-03-12T00:55:04.174Z,2.54
2023-03-12T00:56:03.728Z,1
2023-03-12T00:57:03.842Z,1.38
2023-03-12T00:58:04.164Z,1.07
2023-03-12T00:59:04.580Z,1.07
2023-03-12T01:00:04.524Z,1.03
2023-03-12T01:01:04.432Z,1.72
2023-03-12T01:02:04.700Z,1.49
2023-03-12T01:03:04.091Z,0.96
2023-03-12T01:04:04.426Z,1.34
2023-03-12T01:05:04.462Z,1.12
2023-03-12T01:06:04.532Z,1.12
2023-03-12T01:07:03.996Z,1.45
2023-03-12T01:08:04.130Z,1.49
2023-03-12T01:09:04.013Z,1.59
2023-03-12T01:10:04.373Z,1.11
2023-03-12T01:11:04.573Z,1.09
2023-03-12T01:12:04.614Z,1.79
2023-03-12T01:13:03.824Z,1.85
2023-03-12T01:14:03.965Z,1.19
2023-03-12T01:15:04.489Z,1.63
2023-03-12T01:16:04.085Z,2.32
2023-03-12T01:17:04.737Z,1.24
2023-03-12T01:18:04.094Z,2.04
2023-03-12T01:19:04.278Z,1.33
2023-03-12T01:20:04.582Z,1.6
2023-03-12T01:21:04.627Z,1.33
2023-03-12T01:22:03.753Z,1.11
2023-03-12T01:23:04.069Z,2.53
2023-03-12T01:24:04.210Z,2.28
2023-03-12T01:25:03.905Z,1.65
2023-03-12T01:26:04.267Z,1.78
2023-03-12T01:27:04.470Z,1.93
2023-03-12T01:28:03.965Z,1.25
2023-03-12T01:29:04.422Z,1.49
2023-03-12T01:30:03.951Z,1.54
2023-03-12T01:31:03.803Z,1.26
2023-03-12T01:32:04.143Z,1.33
2023-03-12T01:33:04.529Z,1.35
2023-03-12T01:34:03.807Z,1.55
2023-03-12T01:35:04.605Z,2.44
2023-03-12T01:36:04.327Z,2.15
2023-03-12T01:37:04.593Z,1.41
2023-03-12T01:38:03.973Z,1.75
2023-03-12T01:39:04.474Z,1.38
2023-03-12T01:40:03.808Z,1.74
2023-03-12T01:41:03.969Z,1.58
2023-03-12T01:42:03.800Z,1.01
2023-03-12T01:43:03.723Z,1.78
2023-03-12T01:44:04.062Z,1.78
2023-03-12T01:45:04.487Z,1.32
2023-03-12T01:46:04.017Z,1.51
2023-03-12T01:47:04.021Z,1.51
2023-03-12T01:48:04.576Z,0.87
2023-03-12T01:49:03.988Z,1.28
2023-03-12T01:50:04.779Z,1.16
2023-03-12T01:51:03.970Z,1.16
2023-03-12T01:52:04.141Z,1.25
2023-03-12T01:53:04.480Z,1.83
2023-03-12T01:54:03.076Z,1.46
2023-03-12T01:55:04.442Z,0.85
2023-03-12T01:56:04.621Z,1.21
2023-03-12T01:57:03.755Z,1.21
2023-03-12T01:58:04.531Z,1.6
2023-03-12T01:59:03.916Z,1.36
2023-03-12T02:00:03.788Z,1.28
2023-03-12T02:01:04.281Z,1.27
2023-03-12T02:02:04.495Z,1.49
2023-03-12T02:03:03.815Z,1.72
2023-03-12T02:04:04.471Z,1.04
2023-03-12T02:05:03.776Z,1.34
2023-03-12T02:06:04.649Z,1.68
2023-03-12T02:07:03.976Z,1.28
2023-03-12T02:08:04.314Z,1.49
2023-03-12T02:09:04.548Z,1.18
2023-03-12T02:10:03.776Z,1.29
2023-03-12T02:11:03.927Z,1.17
2023-03-12T02:12:03.990Z,2.14
2023-03-12T02:13:04.435Z,1.15
2023-03-12T02:14:04.576Z,1.22
2023-03-12T02:15:03.899Z,1.07
2023-03-12T02:16:03.857Z,1.41
2023-03-12T02:17:04.396Z,1.64
2023-03-12T02:18:04.697Z,1.49
2023-03-12T02:19:03.848Z,1.62
2023-03-12T02:20:04.429Z,1.42
2023-03-12T02:21:03.955Z,1.47
2023-03-12T02:22:04.280Z,1.03
2023-03-12T02:23:04.458Z,1.11
2023-03-12T02:24:03.725Z,0.82
2023-03-12T02:25:04.173Z,1.95
2023-03-12T02:26:04.359Z,1.15
2023-03-12T02:27:03.660Z,1.63
2023-03-12T02:28:03.987Z,1.14
2023-03-12T02:29:04.708Z,0.96
2023-03-12T02:30:03.744Z,1.14
2023-03-12T02:31:04.185Z,1.19
2023-03-12T02:32:04.693Z,1.35
2023-03-12T02:33:04.626Z,0.95
2023-03-12T02:34:03.788Z,1.61
2023-03-12T02:35:03.826Z,1.46
2023-03-12T02:36:04.712Z,1.46
2023-03-12T02:37:03.880Z,1.36
2023-03-12T02:38:04.042Z,1.46
2023-03-12T02:39:03.995Z,1
2023-03-12T02:40:04.086Z,1.41
2023-03-12T02:41:04.351Z,1.09
2023-03-12T02:42:04.283Z,1.09
2023-03-12T02:43:04.491Z,0.92
2023-03-12T02:44:03.812Z,1.48
2023-03-12T02:45:04.046Z,1.29
2023-03-12T02:46:04.096Z,1.06
2023-03-12T02:47:04.066Z,0.93
2023-03-12T02:48:03.762Z,2.36
2023-03-12T02:49:04.417Z,1.22
2023-03-12T02:50:03.858Z,0.99
2023-03-12T02:51:04.058Z,1.93
2023-03-12T02:52:04.205Z,1.89
2023-03-12T02:53:04.397Z,1.11
2023-03-12T02:54:03.684Z,1.05
2023-03-12T02:55:04.071Z,1.04
2023-03-12T02:56:04.229Z,1.32
2023-03-12T02:57:03.969Z,1.7
2023-03-12T02:58:04.310Z,1.7
2023-03-12T02:59:06.518Z,1.25
2023-03-12T03:00:04.681Z,1.35
2023-03-12T03:01:04.688Z,1.17
2023-03-12T03:02:03.792Z,1.72
2023-03-12T03:03:04.212Z,0.91
2023-03-12T03:04:04.386Z,1.35
2023-03-12T03:05:03.722Z,1.32
2023-03-12T03:06:04.756Z,1.89
2023-03-12T03:07:04.679Z,1.26
2023-03-12T03:08:03.772Z,2.27
2023-03-12T03:09:04.660Z,0.93
2023-03-12T03:10:04.059Z,1.95
2023-03-12T03:11:04.076Z,1.48
2023-03-12T03:12:04.152Z,1.39
2023-03-12T03:13:03.614Z,1.6
2023-03-12T03:14:04.154Z,1.54
2023-03-12T03:15:04.672Z,1.39
2023-03-12T03:16:04.335Z,1.75
2023-03-12T03:17:04.373Z,1.41
2023-03-12T03:18:04.120Z,1.34
2023-03-12T03:19:04.148Z,0.96
2023-03-12T03:20:04.463Z,1.28
2023-03-12T03:21:04.222Z,1.36
2023-03-12T03:22:04.097Z,1.01
2023-03-12T03:23:04.220Z,0.85
2023-03-12T03:24:04.677Z,1.12
2023-03-12T03:25:04.083Z,0.89
2023-03-12T03:26:04.480Z,1.96
2023-03-12T03:27:04.557Z,1.96
2023-03-12T03:28:04.046Z,1.39
2023-03-12T03:29:04.405Z,1.39
2023-03-12T03:30:04.212Z,1.39
2023-03-12T03:31:04.267Z,1.39
2023-03-12T03:32:04.187Z,1.29
2023-03-12T03:33:04.655Z,1.02
2023-03-12T03:34:03.793Z,1.02
2023-03-12T03:35:04.462Z,1.15
2023-03-12T03:36:04.848Z,1.2
2023-03-12T03:37:03.862Z,1.27
2023-03-12T03:38:04.688Z,0.82
2023-03-12T03:39:03.771Z,1.66
2023-03-12T03:40:03.715Z,1.72
2023-03-12T03:41:04.738Z,0.94
2023-03-12T03:42:04.351Z,1.79
2023-03-12T03:43:04.488Z,1.69
2023-03-12T03:44:03.876Z,1.62
2023-03-12T03:45:04.737Z,1.46
2023-03-12T03:46:03.978Z,1.56
2023-03-12T03:47:04.082Z,1.3
2023-03-12T03:48:04.046Z,1.86
2023-03-12T03:49:04.052Z,1.22
2023-03-12T03:50:04.693Z,1.89
2023-03-12T03:51:04.161Z,0.91
2023-03-12T03:52:04.228Z,0.91
2023-03-12T03:53:03.616Z,0.95
2023-03-12T03:54:03.817Z,1.35
2023-03-12T03:55:04.219Z,1.68
2023-03-12T03:56:04.575Z,1.15
2023-03-12T03:57:03.770Z,1.62
2023-03-12T03:58:04.798Z,1.05
2023-03-12T03:59:03.962Z,1.83
2023-03-12T04:00:05.971Z,1.91
2023-03-12T04:01:04.092Z,1.66
2023-03-12T04:02:04.132Z,1.66
2023-03-12T04:03:04.206Z,1.15
2023-03-12T04:04:04.114Z,1.29
2023-03-12T04:05:04.526Z,2.45
2023-03-12T04:06:03.828Z,1.31
2023-03-12T04:07:04.019Z,1.69
2023-03-12T04:08:04.096Z,1.72
2023-03-12T04:09:03.859Z,1.77
2023-03-12T04:10:04.072Z,1.24
2023-03-12T04:11:04.332Z,1.66
2023-03-12T04:12:04.271Z,2.44
2023-03-12T04:13:04.044Z,1.62
2023-03-12T04:14:04.336Z,1.63
2023-03-12T04:15:03.917Z,1.75
2023-03-12T04:16:04.272Z,1.95
2023-03-12T04:17:04.337Z,1.58
2023-03-12T04:18:04.911Z,1.86
2023-03-12T04:19:03.966Z,1.86
2023-03-12T04:20:04.074Z,1.15
2023-03-12T04:21:03.835Z,1.15
2023-03-12T04:22:04.128Z,1.15
2023-03-12T04:23:04.283Z,1.52
2023-03-12T04:24:04.459Z,1.59
2023-03-12T04:25:03.811Z,1.59
2023-03-12T04:26:04.313Z,1.89
2023-03-12T04:27:04.529Z,1.64
2023-03-12T04:28:03.807Z,2.38
2023-03-12T04:29:04.121Z,2.39
2023-03-12T04:30:04.609Z,3.07
2023-03-12T04:31:03.885Z,3.95
2023-03-12T04:32:03.981Z,4.37
2023-03-12T04:33:04.262Z,6.64
2023-03-12T04:34:03.728Z,12.85
2023-03-12T04:35:04.092Z,14.81
2023-03-12T04:36:04.354Z,10.07
2023-03-12T04:37:03.671Z,4.93
2023-03-12T04:38:04.124Z,4.93
2023-03-12T04:39:03.813Z,5.24
2023-03-12T04:40:04.150Z,5.65
2023-03-12T04:41:04.153Z,6.52
2023-03-12T04:42:04.318Z,6.01
2023-03-12T04:43:04.258Z,2.88
2023-03-12T04:44:04.316Z,2.04
2023-03-12T04:45:04.768Z,1.88
2023-03-12T04:46:04.656Z,2.14
2023-03-12T04:47:03.932Z,2.16
2023-03-12T04:48:03.888Z,1.33
2023-03-12T04:49:04.091Z,1.04
2023-03-12T04:50:04.226Z,2.28
2023-03-12T04:51:04.372Z,1.31
2023-03-12T04:52:04.617Z,1.42
2023-03-12T04:53:03.902Z,2
2023-03-12T04:54:03.800Z,1.36
2023-03-12T04:55:04.046Z,1.59
2023-03-12T04:56:04.605Z,1.47
2023-03-12T04:57:04.060Z,1.11
2023-03-12T04:58:04.268Z,1.2
2023-03-12T04:59:04.650Z,1.24
2023-03-12T05:00:04.640Z,1.34
2023-03-12T05:01:04.832Z,1.34
2023-03-12T05:02:03.824Z,0.83
2023-03-12T05:03:04.296Z,1.06
2023-03-12T05:04:04.668Z,1.58
2023-03-12T05:05:04.651Z,1.08
2023-03-12T05:06:03.930Z,1.08
2023-03-12T05:07:04.195Z,1.69
2023-03-12T05:08:04.292Z,1.14
2023-03-12T05:09:04.334Z,0.91
2023-03-12T05:10:04.046Z,1.28
2023-03-12T05:11:03.970Z,1.31
2023-03-12T05:12:04.327Z,1.16
2023-03-12T05:13:04.490Z,1.61
2023-03-12T05:14:04.853Z,1.31
2023-03-12T05:15:04.624Z,1.21
2023-03-12T05:16:04.102Z,1.98
2023-03-12T05:17:04.230Z,1.14
2023-03-12T05:18:04.495Z,1.25
2023-03-12T05:19:04.701Z,1.11
2023-03-12T05:20:03.930Z,1.46
2023-03-12T05:21:04.182Z,1.71
2023-03-12T05:22:04.213Z,1.07
2023-03-12T05:23:03.505Z,0.96
2023-03-12T05:24:04.010Z,1.36
2023-03-12T05:25:04.045Z,1.69
2023-03-12T05:26:04.133Z,1.02
2023-03-12T05:27:04.376Z,1.35
2023-03-12T05:28:04.441Z,1.99
2023-03-12T05:29:03.796Z,1.1
2023-03-12T05:30:04.046Z,1.33
2023-03-12T05:31:04.523Z,1.89
2023-03-12T05:32:03.683Z,1.66
2023-03-12T05:33:03.950Z,2.24
2023-03-12T05:34:04.082Z,1.08
2023-03-12T05:35:04.233Z,1.8
2023-03-12T05:36:04.676Z,2.14
2023-03-12T05:37:03.825Z,1.26
2023-03-12T05:38:04.119Z,1.56
2023-03-12T05:39:04.276Z,1.37
2023-03-12T05:40:04.660Z,1.06
2023-03-12T05:41:04.009Z,1.68
2023-03-12T05:42:04.320Z,1.77
2023-03-12T05:43:04.416Z,2.11
2023-03-12T05:44:03.485Z,1.66
2023-03-12T05:45:04.177Z,1.5
2023-03-12T05:46:04.521Z,1.06
2023-03-12T05:47:04.737Z,1.35
2023-03-12T05:48:04.017Z,1.17
2023-03-12T05:49:04.237Z,1.32
2023-03-12T05:50:04.773Z,1.01
2023-03-12T05:51:04.599Z,1.07
2023-03-12T05:52:03.667Z,1.44
2023-03-12T05:53:03.805Z,1.09
2023-03-12T05:54:04.319Z,1.36
2023-03-12T05:55:04.697Z,1.72
2023-03-12T05:56:03.683Z,1.58
2023-03-12T05:57:03.999Z,1.1
2023-03-12T05:58:04.105Z,0.98
2023-03-12T05:59:04.378Z,0.98
2023-03-12T06:00:04.636Z,1.86
2023-03-12T06:01:04.044Z,1.72
2023-03-12T06:02:04.226Z,2.05
2023-03-12T06:03:04.159Z,1.22
2023-03-12T06:04:04.696Z,1.71
2023-03-12T06:05:03.949Z,1.56
2023-03-12T06:06:03.931Z,1.72
2023-03-12T06:07:03.956Z,1.51
2023-03-12T06:08:04.234Z,1.38
2023-03-12T06:09:04.560Z,1.09
2023-03-12T06:10:03.858Z,1.68
2023-03-12T06:11:04.422Z,0.96
2023-03-12T06:12:03.841Z,1.14
2023-03-12T06:13:03.952Z,2.15
2023-03-12T06:14:03.988Z,1.28
2023-03-12T06:15:04.148Z,1.01
2023-03-12T06:16:04.190Z,1.58
2023-03-12T06:17:04.350Z,1.69
2023-03-12T06:18:03.592Z,2.18
2023-03-12T06:19:04.140Z,1.28
2023-03-12T06:20:04.275Z,1.61
2023-03-12T06:21:04.670Z,1.11
2023-03-12T06:22:03.754Z,1.46
2023-03-12T06:23:04.054Z,1.93
2023-03-12T06:24:04.463Z,2.06
2023-03-12T06:25:03.756Z,1.35
2023-03-12T06:26:04.045Z,1.22
2023-03-12T06:27:04.427Z,1.26
2023-03-12T06:28:04.736Z,1.42
2023-03-12T06:29:03.920Z,2.14
2023-03-12T06:30:04.254Z,1.45
2023-03-12T06:31:04.696Z,1.2
2023-03-12T06:32:04.744Z,1.39
2023-03-12T06:33:03.697Z,1.19
2023-03-12T06:34:04.130Z,1.2
2023-03-12T06:35:04.698Z,1.39
2023-03-12T06:36:04.020Z,1.77
2023-03-12T06:37:04.233Z,1.17
2023-03-12T06:38:04.321Z,1.36
2023-03-12T06:39:03.767Z,1.61
2023-03-12T06:40:04.103Z,1.75
2023-03-12T06:41:04.379Z,1.08
2023-03-12T06:42:04.712Z,1.64
2023-03-12T06:43:04.015Z,1.19
2023-03-12T06:44:04.093Z,1.37
2023-03-12T06:45:04.462Z,1.76
2023-03-12T06:46:04.610Z,2.11
2023-03-12T06:47:03.766Z,2.11
2023-03-12T06:48:03.665Z,2.11
2023-03-12T06:49:04.048Z,1.77
2023-03-12T06:50:04.367Z,1.49
2023-03-12T06:51:03.877Z,2.14
2023-03-12T06:52:04.117Z,3.19
2023-03-12T06:53:04.311Z,1.31
2023-03-12T06:54:04.718Z,1.61
2023-03-12T06:55:03.905Z,1.73
2023-03-12T06:56:04.139Z,1.62
2023-03-12T06:57:04.337Z,1.34
2023-03-12T06:58:04.790Z,1.21
2023-03-12T06:59:03.952Z,1.29
2023-03-12T07:00:04.251Z,2.07
2023-03-12T07:01:03.677Z,1.41
2023-03-12T07:02:04.147Z,1.38
2023-03-12T07:03:03.917Z,1.56
2023-03-12T07:04:04.500Z,1.08
2023-03-12T07:05:04.130Z,1.54
2023-03-12T07:06:04.263Z,1.52
2023-03-12T07:07:04.422Z,1.63
2023-03-12T07:08:04.697Z,1.26
2023-03-12T07:09:04.045Z,1.39
2023-03-12T07:10:04.123Z,1.46
2023-03-12T07:11:04.560Z,2.22
2023-03-12T07:12:04.230Z,2.79
2023-03-12T07:13:04.450Z,2.25
2023-03-12T07:14:04.191Z,2.48
2023-03-12T07:15:04.470Z,2.43
2023-03-12T07:16:04.646Z,2.46
2023-03-12T07:17:04.188Z,2.27
2023-03-12T07:18:04.656Z,1.73
2023-03-12T07:19:04.663Z,1.4
2023-03-12T07:20:04.038Z,2.34
2023-03-12T07:21:04.217Z,1.65
2023-03-12T07:22:04.623Z,1.66
2023-03-12T07:23:03.960Z,2.13
2023-03-12T07:24:04.078Z,1.81
2023-03-12T07:25:04.605Z,1.31
2023-03-12T07:26:03.840Z,1.7
2023-03-12T07:27:04.157Z,2.55
2023-03-12T07:28:04.192Z,1.11
2023-03-12T07:29:04.561Z,1.27
2023-03-12T07:30:03.916Z,1.32
2023-03-12T07:31:04.122Z,1.15
2023-03-12T07:32:03.989Z,1.8
2023-03-12T07:33:04.644Z,1.66
2023-03-12T07:34:04.716Z,1.36
2023-03-12T07:35:03.870Z,1.52
2023-03-12T07:36:04.529Z,0.84
2023-03-12T07:37:04.668Z,1.58
2023-03-12T07:38:04.057Z,1.58
2023-03-12T07:39:04.067Z,1.68
2023-03-12T07:40:04.415Z,1.18
2023-03-12T07:41:03.823Z,1.24
2023-03-12T07:42:04.119Z,2.46
2023-03-12T07:43:04.074Z,1.41
2023-03-12T07:44:04.480Z,1.89
2023-03-12T07:45:04.764Z,1.31
2023-03-12T07:46:03.911Z,1.06
2023-03-12T07:47:24.503Z,1.58
2023-03-12T07:48:04.811Z,1.49
2023-03-12T07:49:03.735Z,2.42
2023-03-12T07:50:04.099Z,1.22
2023-03-12T07:51:04.366Z,1.78
2023-03-12T07:52:03.784Z,1.54
2023-03-12T07:53:04.201Z,3.21
2023-03-12T07:54:04.608Z,1.89
2023-03-12T07:55:03.919Z,1.35
2023-03-12T07:56:04.348Z,1.61
2023-03-12T07:57:04.629Z,1.45
2023-03-12T07:58:04.621Z,1.53
2023-03-12T07:59:03.993Z,1.19
2023-03-12T08:00:04.079Z,2.08
2023-03-12T08:01:03.914Z,2.74
2023-03-12T08:02:04.599Z,1.13
2023-03-12T08:03:04.585Z,2.23
2023-03-12T08:04:04.303Z,1.61
2023-03-12T08:05:03.930Z,1.27
2023-03-12T08:06:04.693Z,1.7
2023-03-12T08:07:04.170Z,1.18
2023-03-12T08:08:04.489Z,1.57
2023-03-12T08:09:04.738Z,1.47
2023-03-12T08:10:04.150Z,1.79
2023-03-12T08:11:04.280Z,1.46
2023-03-12T08:12:04.708Z,0.96
2023-03-12T08:13:03.909Z,2.15
2023-03-12T08:14:03.968Z,1.19
2023-03-12T08:15:04.163Z,1.59
2023-03-12T08:16:04.480Z,1.3
2023-03-12T08:17:04.556Z,0.85
2023-03-12T08:18:04.041Z,1.23
2023-03-12T08:19:04.330Z,0.93
2023-03-12T08:20:04.320Z,1.99
2023-03-12T08:21:04.550Z,1.81
2023-03-12T08:22:03.756Z,1.31
2023-03-12T08:23:03.869Z,2.14
2023-03-12T08:24:03.928Z,1.56
2023-03-12T08:25:04.363Z,1.75
2023-03-12T08:26:04.609Z,1.66
2023-03-12T08:27:03.861Z,1.97
2023-03-12T08:28:04.038Z,1.97
2023-03-12T08:29:04.360Z,1.02
2023-03-12T08:30:04.757Z,1.83
2023-03-12T08:31:04.549Z,1.66
2023-03-12T08:32:07.664Z,1.91
2023-03-12T08:33:03.977Z,1.34
2023-03-12T08:34:04.280Z,2.23
2023-03-12T08:35:03.636Z,1.3
2023-03-12T08:36:04.228Z,2.88
2023-03-12T08:37:04.585Z,2.16
2023-03-12T08:38:04.057Z,2.65
2023-03-12T08:39:04.248Z,2.79
2023-03-12T08:40:04.473Z,2.16
2023-03-12T08:41:04.421Z,2.42
2023-03-12T08:42:03.746Z,2.43
2023-03-12T08:43:03.973Z,1.96
2023-03-12T08:44:04.333Z,1.65
2023-03-12T08:45:04.574Z,3.88
2023-03-12T08:46:04.361Z,2.24
2023-03-12T08:47:03.987Z,2.32
2023-03-12T08:48:04.262Z,2.37
2023-03-12T08:49:04.279Z,1.21
2023-03-12T08:50:03.897Z,2.83
2023-03-12T08:51:04.236Z,1.95
2023-03-12T08:52:04.653Z,2.56
2023-03-12T08:53:03.886Z,1.75
2023-03-12T08:54:04.041Z,2.45
2023-03-12T08:55:04.406Z,2.25
2023-03-12T08:56:03.889Z,1.82
2023-03-12T08:57:04.310Z,1.71
2023-03-12T08:58:04.870Z,2.17
2023-03-12T08:59:04.537Z,3.24
2023-03-12T09:00:03.728Z,4.49
2023-03-12T09:01:03.993Z,2.44
2023-03-12T09:02:04.523Z,2.38
2023-03-12T09:03:04.652Z,2.34
2023-03-12T09:04:03.810Z,3.28
2023-03-12T09:05:04.165Z,2.46
2023-03-12T09:06:04.275Z,2.44
2023-03-12T09:07:03.778Z,2.59
2023-03-12T09:08:04.626Z,2.78
2023-03-12T09:09:03.651Z,2.75
2023-03-12T09:10:04.292Z,1.76
2023-03-12T09:11:04.433Z,1.79
2023-03-12T09:12:04.094Z,2.35
2023-03-12T09:13:04.416Z,1.88
2023-03-12T09:15:03.309Z,2.49
2023-03-12T09:15:06.681Z,3.53
2023-03-12T09:16:04.350Z,2.35
2023-03-12T09:17:04.566Z,2.44
2023-03-12T09:18:03.905Z,1.96
2023-03-12T09:19:04.156Z,3.11
2023-03-12T09:20:03.801Z,3.11
2023-03-12T09:21:04.717Z,1.75
2023-03-12T09:22:03.921Z,1.36
2023-03-12T09:23:04.577Z,1.36
2023-03-12T09:24:04.056Z,2.1
2023-03-12T09:25:04.367Z,3.26
2023-03-12T09:26:04.539Z,1.56
2023-03-12T09:27:03.967Z,1.58
2023-03-12T09:28:04.464Z,1.82
2023-03-12T09:29:03.749Z,1.85
2023-03-12T09:30:03.817Z,2.49
2023-03-12T09:31:04.436Z,2.74
2023-03-12T09:32:07.695Z,1.68
2023-03-12T09:33:03.711Z,1.54
2023-03-12T09:34:04.037Z,3.23
2023-03-12T09:35:04.227Z,3.05
2023-03-12T09:36:04.516Z,2.38
2023-03-12T09:37:03.905Z,2.05
2023-03-12T09:38:04.086Z,2.22
2023-03-12T09:39:04.508Z,1.89
2023-03-12T09:40:04.647Z,1.31
2023-03-12T09:41:03.977Z,2.17
2023-03-12T09:42:04.333Z,2.15
2023-03-12T09:43:04.698Z,1.66
2023-03-12T09:44:03.978Z,1.48
2023-03-12T09:45:04.404Z,1.71
2023-03-12T09:46:04.951Z,1.68
2023-03-12T09:47:04.072Z,2.02
2023-03-12T09:48:04.331Z,1.94
2023-03-12T09:49:04.411Z,2.06
2023-03-12T09:50:04.760Z,2.31
2023-03-12T09:51:03.897Z,2.79
2023-03-12T09:52:04.182Z,2.34
2023-03-12T09:53:04.241Z,2.3
2023-03-12T09:54:04.614Z,1.84
2023-03-12T09:55:03.894Z,1.49
2023-03-12T09:56:04.362Z,2.32
2023-03-12T09:57:04.508Z,1.97
2023-03-12T09:58:03.812Z,2.44
2023-03-12T09:59:04.113Z,1.15
2023-03-12T10:00:04.156Z,1.85
2023-03-12T10:01:04.200Z,1.52
2023-03-12T10:02:04.428Z,1.71
2023-03-12T10:03:04.608Z,1.44
2023-03-12T10:04:03.702Z,1.22
2023-03-12T10:05:04.220Z,1.34
2023-03-12T10:06:04.742Z,1.56
2023-03-12T10:07:04.182Z,2.33
2023-03-12T10:08:26.310Z,1.67
2023-03-12T10:09:04.716Z,1.85
2023-03-12T10:10:04.243Z,1.84
2023-03-12T10:11:03.934Z,1.67
2023-03-12T10:12:04.216Z,1.67
2023-03-12T10:13:04.367Z,1.55
2023-03-12T10:14:04.525Z,2.14
2023-03-12T10:15:03.930Z,1.19
2023-03-12T10:16:04.449Z,2.11
2023-03-12T10:17:04.821Z,1.12
2023-03-12T10:18:04.174Z,1.15
2023-03-12T10:19:04.169Z,0.84
2023-03-12T10:20:04.456Z,0.99
2023-03-12T10:21:04.726Z,0.94
2023-03-12T10:22:03.585Z,1.1
2023-03-12T10:23:04.002Z,1.42
2023-03-12T10:24:04.432Z,1.36
2023-03-12T10:25:04.418Z,1.33
2023-03-12T10:26:04.265Z,2.2
2023-03-12T10:27:04.511Z,2.27
2023-03-12T10:28:03.736Z,3.08
2023-03-12T10:29:03.997Z,1.93
2023-03-12T10:30:04.224Z,2.07
2023-03-12T10:31:04.035Z,2.53
2023-03-12T10:32:04.324Z,2.28
2023-03-12T10:33:04.500Z,2.95
2023-03-12T10:34:04.600Z,1.81
2023-03-12T10:35:03.962Z,2.76
2023-03-12T10:36:04.080Z,2.94
2023-03-12T10:37:04.447Z,3.38
2023-03-12T10:38:04.549Z,3.22
2023-03-12T10:39:03.854Z,2.31
2023-03-12T10:40:04.123Z,1.79
2023-03-12T10:41:04.641Z,2.09
2023-03-12T10:42:04.026Z,2.94
2023-03-12T10:43:04.352Z,2.46
2023-03-12T10:44:04.622Z,3.46
2023-03-12T10:45:04.643Z,2.88
2023-03-12T10:46:04.239Z,2.14
2023-03-12T10:47:04.103Z,3.19
2023-03-12T10:48:04.646Z,2.82
2023-03-12T10:49:03.825Z,2.56
2023-03-12T10:50:03.807Z,3.18
2023-03-12T10:51:04.397Z,3.16
2023-03-12T10:52:04.346Z,1.99
2023-03-12T10:53:04.459Z,2.18
2023-03-12T10:54:04.790Z,1.66
2023-03-12T10:55:03.943Z,1.3
2023-03-12T10:56:04.601Z,1.38
2023-03-12T10:57:03.873Z,1.65
2023-03-12T10:58:03.985Z,1.71
2023-03-12T10:59:04.441Z,2.18
2023-03-12T11:00:03.780Z,1.55
2023-03-12T11:01:03.894Z,1.55
2023-03-12T11:02:04.288Z,2.96
2023-03-12T11:03:04.181Z,1.81
2023-03-12T11:04:04.574Z,2.58
2023-03-12T11:05:04.012Z,1.65
2023-03-12T11:06:04.164Z,2.21
2023-03-12T11:07:04.211Z,3.01
2023-03-12T11:08:04.401Z,1.42
2023-03-12T11:09:18.227Z,2.14
2023-03-12T11:10:03.886Z,2.37
2023-03-12T11:11:04.262Z,2.67
2023-03-12T11:12:04.511Z,1.77
2023-03-12T11:13:03.891Z,1.44
2023-03-12T11:14:04.100Z,1.97
2023-03-12T11:15:04.359Z,1.01
2023-03-12T11:16:04.153Z,1.71
2023-03-12T11:17:04.385Z,1.51
2023-03-12T11:18:03.882Z,1.31
2023-03-12T11:19:04.038Z,1.76
2023-03-12T11:20:04.188Z,2.1
2023-03-12T11:21:04.564Z,2.16
2023-03-12T11:22:03.759Z,2.65
2023-03-12T11:23:04.092Z,1.79
2023-03-12T11:24:04.346Z,2
2023-03-12T11:25:04.731Z,2.17
2023-03-12T11:26:04.091Z,1.65
2023-03-12T11:27:04.429Z,3.78
2023-03-12T11:28:03.939Z,1.94
2023-03-12T11:29:04.184Z,2.56
2023-03-12T11:30:04.735Z,2.12
2023-03-12T11:31:03.777Z,2.01
2023-03-12T11:32:04.348Z,2.05
2023-03-12T11:33:04.282Z,2.38
2023-03-12T11:34:04.443Z,1.96
2023-03-12T11:35:03.874Z,2.56
2023-03-12T11:36:03.929Z,2.19
2023-03-12T11:37:04.405Z,1.77
2023-03-12T11:38:03.840Z,1.73
2023-03-12T11:39:03.682Z,1.98
2023-03-12T11:40:04.027Z,1.75
2023-03-12T11:41:04.481Z,2.33
2023-03-12T11:42:04.061Z,3.22
2023-03-12T11:43:03.793Z,3.42
2023-03-12T11:44:03.839Z,1.88
2023-03-12T11:45:04.140Z,2.5
2023-03-12T11:46:03.707Z,2.08
2023-03-12T11:47:04.265Z,2.84
2023-03-12T11:48:04.313Z,2.85
2023-03-12T11:49:04.656Z,1.81
2023-03-12T11:50:04.678Z,3.57
2023-03-12T11:51:03.867Z,2.87
2023-03-12T11:52:04.033Z,2.24
2023-03-12T11:53:04.446Z,2.4
2023-03-12T11:54:03.812Z,2.4
2023-03-12T11:55:04.000Z,2.42
2023-03-12T11:56:04.116Z,1.96
2023-03-12T11:57:04.278Z,2.2
2023-03-12T11:58:03.768Z,2.12
2023-03-12T11:59:03.907Z,3.87
2023-03-12T12:00:04.440Z,2.4
2023-03-12T12:01:04.690Z,1.63
2023-03-12T12:02:04.154Z,2.19
2023-03-12T12:03:04.471Z,1.52
2023-03-12T12:04:04.454Z,1.95
2023-03-12T12:05:03.767Z,2.57
2023-03-12T12:06:04.175Z,2.47
2023-03-12T12:07:04.195Z,1.56
2023-03-12T12:08:04.665Z,1.54
2023-03-12T12:09:03.831Z,1.83
2023-03-12T12:10:03.856Z,2.69
2023-03-12T12:11:03.892Z,2.52
2023-03-12T12:12:07.401Z,2.22
2023-03-12T12:13:04.478Z,1.93
2023-03-12T12:14:04.667Z,2.28
2023-03-12T12:15:03.815Z,2.57
2023-03-12T12:16:04.364Z,2.77
2023-03-12T12:17:04.426Z,1.48
2023-03-12T12:18:04.766Z,2.51
2023-03-12T12:19:06.573Z,2.87
2023-03-12T12:20:04.341Z,2.12
2023-03-12T12:21:04.726Z,1.96
2023-03-12T12:22:03.878Z,3.64
2023-03-12T12:23:04.320Z,2.62
2023-03-12T12:24:04.261Z,2.71
2023-03-12T12:25:04.693Z,3.15
2023-03-12T12:26:03.805Z,2.66
2023-03-12T12:27:04.272Z,2.21
2023-03-12T12:28:04.243Z,1.44
2023-03-12T12:29:04.605Z,2.26
2023-03-12T12:30:04.140Z,2.14
2023-03-12T12:31:04.534Z,4.78
2023-03-12T12:32:04.526Z,2.25
2023-03-12T12:33:04.544Z,1.92
2023-03-12T12:34:03.400Z,1.95
2023-03-12T12:35:04.096Z,2.31
2023-03-12T12:36:04.556Z,2.41
2023-03-12T12:37:04.633Z,2.01
2023-03-12T12:38:03.946Z,2.52
2023-03-12T12:39:04.115Z,2.66
2023-03-12T12:40:04.236Z,2.12
2023-03-12T12:41:04.830Z,2.14
2023-03-12T12:42:03.898Z,2.08
2023-03-12T12:43:04.121Z,2.08
2023-03-12T12:44:04.527Z,2.42
2023-03-12T12:45:03.919Z,1.61
2023-03-12T12:46:04.403Z,2.74
2023-03-12T12:47:04.506Z,2.02
2023-03-12T12:48:04.934Z,3.12
2023-03-12T12:49:03.863Z,2.66
2023-03-12T12:50:04.400Z,2.11
2023-03-12T12:51:05.555Z,1.83
2023-03-12T12:52:03.733Z,1.55
2023-03-12T12:53:04.097Z,2.29
2023-03-12T12:54:04.165Z,2.08
2023-03-12T12:55:04.629Z,1.98
2023-03-12T12:56:03.754Z,2.05
2023-03-12T12:57:04.193Z,2.04
2023-03-12T12:58:04.469Z,1.71
2023-03-12T12:59:04.461Z,2.21
2023-03-12T13:00:03.952Z,2.25
2023-03-12T13:01:04.445Z,2.93
2023-03-12T13:02:04.427Z,2.39
2023-03-12T13:03:04.525Z,2.31
2023-03-12T13:04:03.865Z,2.35
2023-03-12T13:05:03.745Z,2.72
2023-03-12T13:06:04.288Z,2.38
2023-03-12T13:07:04.613Z,2.7
2023-03-12T13:08:04.510Z,2.06
2023-03-12T13:09:03.784Z,1.98
2023-03-12T13:10:03.918Z,2.02
2023-03-12T13:11:20.760Z,1.53
2023-03-12T13:12:04.574Z,1.85
2023-03-12T13:13:03.664Z,1.56
2023-03-12T13:14:04.003Z,1.88
2023-03-12T13:15:04.353Z,1.29
2023-03-12T13:16:04.725Z,1.08
2023-03-12T13:17:04.726Z,1.53
2023-03-12T13:18:03.615Z,1.06
2023-03-12T13:19:03.921Z,0.87
2023-03-12T13:20:04.571Z,1.56